Terminal Aerodrome Forecast
Issued by NWS Detroit/Pontiac, MI

Home | Current Version | Previous Version | Text Only | Print | Product List | Glossary On
Versions: 1 2 3 4 5 6 7 8 9 10 11 12 13 14 15 16 17 18 19 20 21 22 23 24 25 26 27
000
FTUS43 KDTX 281415 AAA
TAFDTW
TAF AMD
KDTW 281415Z 2814/2918 28004KT P6SM SCT250
     FM281900 20008KT P6SM BKN200
     FM290100 16008KT P6SM BKN100
     FM291100 16010KT P6SM SCT025 OVC040
     FM291300 18012KT 3SM -SN BR BKN012 OVC025=

USA.gov is the U.S. government's official web portal to all federal, state and local government web resources and services.